sensor_id;sensor_type;location;lat;lon;timestamp;temperature;humidity
35804;DHT22;21924;51.934;7.414;2022-07-24T00:01:42;17.20;99.90
35804;DHT22;21924;51.934;7.414;2022-07-24T00:04:26;17.10;99.90
35804;DHT22;21924;51.934;7.414;2022-07-24T00:07:10;17.10;99.90
35804;DHT22;21924;51.934;7.414;2022-07-24T00:09:54;17.10;99.90
35804;DHT22;21924;51.934;7.414;2022-07-24T00:12:39;17.00;99.90
35804;DHT22;21924;51.934;7.414;2022-07-24T00:15:24;17.00;99.90
35804;DHT22;21924;51.934;7.414;2022-07-24T00:18:08;17.00;99.90
35804;DHT22;21924;51.934;7.414;2022-07-24T00:20:52;16.90;99.90
35804;DHT22;21924;51.934;7.414;2022-07-24T00:23:36;16.90;99.90
35804;DHT22;21924;51.934;7.414;2022-07-24T00:26:21;16.90;99.90
35804;DHT22;21924;51.934;7.414;2022-07-24T00:29:05;16.80;99.90
35804;DHT22;21924;51.934;7.414;2022-07-24T00:31:49;16.80;99.90
35804;DHT22;21924;51.934;7.414;2022-07-24T00:34:34;16.80;99.90
35804;DHT22;21924;51.934;7.414;2022-07-24T00:37:18;16.70;99.90
35804;DHT22;21924;51.934;7.414;2022-07-24T00:40:03;16.70;99.90
35804;DHT22;21924;51.934;7.414;2022-07-24T00:42:47;16.70;99.90
35804;DHT22;21924;51.934;7.414;2022-07-24T00:45:32;16.70;99.90
35804;DHT22;21924;51.934;7.414;2022-07-24T00:48:16;16.70;99.90
35804;DHT22;21924;51.934;7.414;2022-07-24T00:51:00;16.70;99.90
35804;DHT22;21924;51.934;7.414;2022-07-24T00:53:44;16.70;99.90
35804;DHT22;21924;51.934;7.414;2022-07-24T00:56:29;16.70;99.90
35804;DHT22;21924;51.934;7.414;2022-07-24T00:59:13;16.70;99.90
35804;DHT22;21924;51.934;7.414;2022-07-24T01:01:57;16.70;99.90
35804;DHT22;21924;51.934;7.414;2022-07-24T01:04:42;16.60;99.90
35804;DHT22;21924;51.934;7.414;2022-07-24T01:07:26;16.60;99.90
35804;DHT22;21924;51.934;7.414;2022-07-24T01:10:11;16.60;99.90
35804;DHT22;21924;51.934;7.414;2022-07-24T01:12:55;16.60;99.90
35804;DHT22;21924;51.934;7.414;2022-07-24T01:15:39;16.70;99.90
35804;DHT22;21924;51.934;7.414;2022-07-24T01:18:24;16.70;99.90
35804;DHT22;21924;51.934;7.414;2022-07-24T01:21:09;16.60;99.90
35804;DHT22;21924;51.934;7.414;2022-07-24T01:23:54;16.60;99.90
35804;DHT22;21924;51.934;7.414;2022-07-24T01:26:38;16.50;99.90
35804;DHT22;21924;51.934;7.414;2022-07-24T01:29:22;16.50;99.90
35804;DHT22;21924;51.934;7.414;2022-07-24T01:32:07;16.50;99.90
35804;DHT22;21924;51.934;7.414;2022-07-24T01:34:51;16.50;99.90
35804;DHT22;21924;51.934;7.414;2022-07-24T01:37:35;16.50;99.90
35804;DHT22;21924;51.934;7.414;2022-07-24T01:40:21;16.50;99.90
35804;DHT22;21924;51.934;7.414;2022-07-24T01:43:06;16.50;99.90
35804;DHT22;21924;51.934;7.414;2022-07-24T01:45:50;16.40;99.90
35804;DHT22;21924;51.934;7.414;2022-07-24T01:48:34;16.40;99.90
35804;DHT22;21924;51.934;7.414;2022-07-24T01:51:19;16.50;99.90
35804;DHT22;21924;51.934;7.414;2022-07-24T01:54:03;16.40;99.90
35804;DHT22;21924;51.934;7.414;2022-07-24T01:56:48;16.50;99.90
35804;DHT22;21924;51.934;7.414;2022-07-24T01:59:32;16.50;99.90
35804;DHT22;21924;51.934;7.414;2022-07-24T02:02:16;16.40;99.90
35804;DHT22;21924;51.934;7.414;2022-07-24T02:05:00;16.40;99.90
35804;DHT22;21924;51.934;7.414;2022-07-24T02:07:45;16.40;99.90
35804;DHT22;21924;51.934;7.414;2022-07-24T02:10:29;16.40;99.90
35804;DHT22;21924;51.934;7.414;2022-07-24T02:13:13;16.30;99.90
35804;DHT22;21924;51.934;7.414;2022-07-24T02:15:57;16.30;99.90
35804;DHT22;21924;51.934;7.414;2022-07-24T02:18:42;16.30;99.90
35804;DHT22;21924;51.934;7.414;2022-07-24T02:21:26;16.30;99.90
35804;DHT22;21924;51.934;7.414;2022-07-24T02:24:10;16.30;99.90
35804;DHT22;21924;51.934;7.414;2022-07-24T02:26:55;16.30;99.90
35804;DHT22;21924;51.934;7.414;2022-07-24T02:29:39;16.30;99.90
35804;DHT22;21924;51.934;7.414;2022-07-24T02:32:24;16.20;99.90
35804;DHT22;21924;51.934;7.414;2022-07-24T02:35:09;16.20;99.90
35804;DHT22;21924;51.934;7.414;2022-07-24T02:37:53;16.20;99.90
35804;DHT22;21924;51.934;7.414;2022-07-24T02:40:37;16.20;99.90
35804;DHT22;21924;51.934;7.414;2022-07-24T02:43:22;16.20;99.90
35804;DHT22;21924;51.934;7.414;2022-07-24T02:46:06;16.20;99.90
35804;DHT22;21924;51.934;7.414;2022-07-24T02:48:50;16.20;99.90
35804;DHT22;21924;51.934;7.414;2022-07-24T02:51:34;16.20;99.90
35804;DHT22;21924;51.934;7.414;2022-07-24T02:54:19;16.10;99.90
35804;DHT22;21924;51.934;7.414;2022-07-24T02:57:03;16.10;99.90
35804;DHT22;21924;51.934;7.414;2022-07-24T02:59:47;16.10;99.90
35804;DHT22;21924;51.934;7.414;2022-07-24T03:02:36;16.20;99.90
35804;DHT22;21924;51.934;7.414;2022-07-24T03:05:20;16.10;99.90
35804;DHT22;21924;51.934;7.414;2022-07-24T03:08:04;16.20;99.90
35804;DHT22;21924;51.934;7.414;2022-07-24T03:10:49;16.20;99.90
35804;DHT22;21924;51.934;7.414;2022-07-24T03:13:33;16.20;99.90
35804;DHT22;21924;51.934;7.414;2022-07-24T03:16:17;16.10;99.90
35804;DHT22;21924;51.934;7.414;2022-07-24T03:19:02;16.10;99.90
35804;DHT22;21924;51.934;7.414;2022-07-24T03:21:47;16.10;99.90
35804;DHT22;21924;51.934;7.414;2022-07-24T03:24:31;16.20;99.90
35804;DHT22;21924;51.934;7.414;2022-07-24T03:27:16;16.10;99.90
35804;DHT22;21924;51.934;7.414;2022-07-24T03:30:00;16.10;99.90
35804;DHT22;21924;51.934;7.414;2022-07-24T03:32:44;16.00;99.90
35804;DHT22;21924;51.934;7.414;2022-07-24T03:35:28;16.00;99.90
35804;DHT22;21924;51.934;7.414;2022-07-24T03:38:13;16.00;99.90
35804;DHT22;21924;51.934;7.414;2022-07-24T03:40:57;15.90;99.90
35804;DHT22;21924;51.934;7.414;2022-07-24T03:43:42;15.90;99.90
35804;DHT22;21924;51.934;7.414;2022-07-24T03:46:26;15.90;99.90
35804;DHT22;21924;51.934;7.414;2022-07-24T03:49:12;15.90;99.90
35804;DHT22;21924;51.934;7.414;2022-07-24T03:51:56;15.90;99.90
35804;DHT22;21924;51.934;7.414;2022-07-24T03:54:41;15.90;99.90
35804;DHT22;21924;51.934;7.414;2022-07-24T03:57:25;15.90;99.90
35804;DHT22;21924;51.934;7.414;2022-07-24T04:00:10;15.90;99.90
35804;DHT22;21924;51.934;7.414;2022-07-24T04:02:54;15.90;99.90
35804;DHT22;21924;51.934;7.414;2022-07-24T04:05:39;15.90;99.90
35804;DHT22;21924;51.934;7.414;2022-07-24T04:08:23;15.90;99.90
35804;DHT22;21924;51.934;7.414;2022-07-24T04:11:07;15.90;99.90
35804;DHT22;21924;51.934;7.414;2022-07-24T04:13:53;16.00;99.90
35804;DHT22;21924;51.934;7.414;2022-07-24T04:16:37;16.00;99.90
35804;DHT22;21924;51.934;7.414;2022-07-24T04:19:22;16.00;99.90
35804;DHT22;21924;51.934;7.414;2022-07-24T04:22:06;16.10;99.90
35804;DHT22;21924;51.934;7.414;2022-07-24T04:24:50;16.10;99.90
35804;DHT22;21924;51.934;7.414;2022-07-24T04:27:34;16.10;99.90
35804;DHT22;21924;51.934;7.414;2022-07-24T04:30:19;16.20;99.90
35804;DHT22;21924;51.934;7.414;2022-07-24T04:33:03;16.30;99.90
35804;DHT22;21924;51.934;7.414;2022-07-24T04:35:47;16.50;99.90
35804;DHT22;21924;51.934;7.414;2022-07-24T04:38:33;16.70;99.90
35804;DHT22;21924;51.934;7.414;2022-07-24T04:41:17;17.00;99.90
35804;DHT22;21924;51.934;7.414;2022-07-24T04:44:02;17.20;99.90
35804;DHT22;21924;51.934;7.414;2022-07-24T04:46:46;17.40;99.90
35804;DHT22;21924;51.934;7.414;2022-07-24T04:49:30;17.70;99.90
35804;DHT22;21924;51.934;7.414;2022-07-24T04:52:15;17.90;99.90
35804;DHT22;21924;51.934;7.414;2022-07-24T04:54:59;17.90;99.90
35804;DHT22;21924;51.934;7.414;2022-07-24T04:57:43;18.00;99.90
35804;DHT22;21924;51.934;7.414;2022-07-24T05:00:28;18.00;99.90
35804;DHT22;21924;51.934;7.414;2022-07-24T05:03:12;17.90;99.90
35804;DHT22;21924;51.934;7.414;2022-07-24T05:05:56;17.70;99.90
35804;DHT22;21924;51.934;7.414;2022-07-24T05:08:41;17.60;99.90
35804;DHT22;21924;51.934;7.414;2022-07-24T05:11:25;17.60;99.90
35804;DHT22;21924;51.934;7.414;2022-07-24T05:14:09;17.60;99.90
35804;DHT22;21924;51.934;7.414;2022-07-24T05:16:53;17.60;99.90
35804;DHT22;21924;51.934;7.414;2022-07-24T05:19:38;17.60;99.90
35804;DHT22;21924;51.934;7.414;2022-07-24T05:22:22;17.50;99.90
35804;DHT22;21924;51.934;7.414;2022-07-24T05:25:07;17.50;99.90
35804;DHT22;21924;51.934;7.414;2022-07-24T05:27:51;17.60;99.90
35804;DHT22;21924;51.934;7.414;2022-07-24T05:30:35;17.60;99.90
35804;DHT22;21924;51.934;7.414;2022-07-24T05:33:20;17.70;99.90
35804;DHT22;21924;51.934;7.414;2022-07-24T05:36:04;17.70;99.90
35804;DHT22;21924;51.934;7.414;2022-07-24T05:38:48;17.70;99.90
35804;DHT22;21924;51.934;7.414;2022-07-24T05:41:32;17.80;99.90
35804;DHT22;21924;51.934;7.414;2022-07-24T05:44:17;17.80;99.90
35804;DHT22;21924;51.934;7.414;2022-07-24T05:47:02;17.90;99.90
35804;DHT22;21924;51.934;7.414;2022-07-24T05:49:46;18.00;99.90
35804;DHT22;21924;51.934;7.414;2022-07-24T05:52:30;17.90;99.90
35804;DHT22;21924;51.934;7.414;2022-07-24T05:55:14;18.00;99.90
35804;DHT22;21924;51.934;7.414;2022-07-24T05:57:58;18.00;99.90
35804;DHT22;21924;51.934;7.414;2022-07-24T06:00:43;18.00;99.90
35804;DHT22;21924;51.934;7.414;2022-07-24T06:03:28;18.10;99.90
35804;DHT22;21924;51.934;7.414;2022-07-24T06:06:12;18.20;99.90
35804;DHT22;21924;51.934;7.414;2022-07-24T06:08:56;18.20;99.90
35804;DHT22;21924;51.934;7.414;2022-07-24T06:11:41;18.20;99.90
35804;DHT22;21924;51.934;7.414;2022-07-24T06:14:26;18.30;99.90
35804;DHT22;21924;51.934;7.414;2022-07-24T06:17:10;18.40;99.90
35804;DHT22;21924;51.934;7.414;2022-07-24T06:19:54;18.40;99.90
35804;DHT22;21924;51.934;7.414;2022-07-24T06:22:40;18.60;99.90
35804;DHT22;21924;51.934;7.414;2022-07-24T06:25:24;18.60;99.90
35804;DHT22;21924;51.934;7.414;2022-07-24T06:28:09;18.60;99.90
35804;DHT22;21924;51.934;7.414;2022-07-24T06:30:53;18.50;99.90
35804;DHT22;21924;51.934;7.414;2022-07-24T06:33:37;18.60;99.90
35804;DHT22;21924;51.934;7.414;2022-07-24T06:36:22;18.70;99.90
35804;DHT22;21924;51.934;7.414;2022-07-24T06:39:06;18.80;99.90
35804;DHT22;21924;51.934;7.414;2022-07-24T06:41:50;18.90;99.90
35804;DHT22;21924;51.934;7.414;2022-07-24T06:44:35;19.10;99.90
35804;DHT22;21924;51.934;7.414;2022-07-24T06:47:20;19.20;99.90
35804;DHT22;21924;51.934;7.414;2022-07-24T06:50:04;19.30;99.90
35804;DHT22;21924;51.934;7.414;2022-07-24T06:52:49;19.50;99.90
35804;DHT22;21924;51.934;7.414;2022-07-24T06:55:33;19.60;99.90
35804;DHT22;21924;51.934;7.414;2022-07-24T06:58:17;19.80;99.90
35804;DHT22;21924;51.934;7.414;2022-07-24T07:01:01;19.80;99.90
35804;DHT22;21924;51.934;7.414;2022-07-24T07:03:46;19.90;99.90
35804;DHT22;21924;51.934;7.414;2022-07-24T07:06:30;20.10;99.90
35804;DHT22;21924;51.934;7.414;2022-07-24T07:09:14;20.30;99.90
35804;DHT22;21924;51.934;7.414;2022-07-24T07:11:58;20.40;99.90
35804;DHT22;21924;51.934;7.414;2022-07-24T07:14:43;20.60;99.90
35804;DHT22;21924;51.934;7.414;2022-07-24T07:17:27;20.70;99.90
35804;DHT22;21924;51.934;7.414;2022-07-24T07:20:12;20.90;99.90
35804;DHT22;21924;51.934;7.414;2022-07-24T07:22:57;20.90;99.90
35804;DHT22;21924;51.934;7.414;2022-07-24T07:25:42;21.10;99.90
35804;DHT22;21924;51.934;7.414;2022-07-24T07:28:26;21.10;99.90
35804;DHT22;21924;51.934;7.414;2022-07-24T07:31:10;21.30;99.90
35804;DHT22;21924;51.934;7.414;2022-07-24T07:33:54;21.40;99.90
35804;DHT22;21924;51.934;7.414;2022-07-24T07:36:40;21.60;99.90
35804;DHT22;21924;51.934;7.414;2022-07-24T07:39:24;21.70;99.90
35804;DHT22;21924;51.934;7.414;2022-07-24T07:42:08;21.80;99.90
35804;DHT22;21924;51.934;7.414;2022-07-24T07:44:53;21.90;99.90
35804;DHT22;21924;51.934;7.414;2022-07-24T07:47:37;22.10;99.90
35804;DHT22;21924;51.934;7.414;2022-07-24T07:50:21;22.20;99.90
35804;DHT22;21924;51.934;7.414;2022-07-24T07:53:06;22.30;99.90
35804;DHT22;21924;51.934;7.414;2022-07-24T07:55:50;22.40;99.90
35804;DHT22;21924;51.934;7.414;2022-07-24T07:58:36;22.50;99.90
35804;DHT22;21924;51.934;7.414;2022-07-24T08:01:20;22.70;99.90
35804;DHT22;21924;51.934;7.414;2022-07-24T08:04:04;22.80;99.90
35804;DHT22;21924;51.934;7.414;2022-07-24T08:06:48;23.00;99.90
35804;DHT22;21924;51.934;7.414;2022-07-24T08:09:33;23.10;99.90
35804;DHT22;21924;51.934;7.414;2022-07-24T08:12:17;23.20;99.90
35804;DHT22;21924;51.934;7.414;2022-07-24T08:15:02;23.40;99.90
35804;DHT22;21924;51.934;7.414;2022-07-24T08:17:51;23.40;99.90
35804;DHT22;21924;51.934;7.414;2022-07-24T08:20:36;23.50;99.90
35804;DHT22;21924;51.934;7.414;2022-07-24T08:23:20;23.60;99.90
35804;DHT22;21924;51.934;7.414;2022-07-24T08:26:05;23.80;99.90
35804;DHT22;21924;51.934;7.414;2022-07-24T08:28:50;23.90;99.90
35804;DHT22;21924;51.934;7.414;2022-07-24T08:31:34;24.00;99.90
35804;DHT22;21924;51.934;7.414;2022-07-24T08:34:18;24.10;99.90
35804;DHT22;21924;51.934;7.414;2022-07-24T08:37:02;24.00;99.90
35804;DHT22;21924;51.934;7.414;2022-07-24T08:39:47;24.20;99.90
35804;DHT22;21924;51.934;7.414;2022-07-24T08:42:31;24.10;99.90
35804;DHT22;21924;51.934;7.414;2022-07-24T08:45:16;24.20;99.90
35804;DHT22;21924;51.934;7.414;2022-07-24T08:48:03;24.40;99.90
35804;DHT22;21924;51.934;7.414;2022-07-24T08:50:50;24.40;99.90
35804;DHT22;21924;51.934;7.414;2022-07-24T08:53:34;24.50;99.90
35804;DHT22;21924;51.934;7.414;2022-07-24T08:56:18;24.70;99.90
35804;DHT22;21924;51.934;7.414;2022-07-24T08:59:03;24.70;99.90
35804;DHT22;21924;51.934;7.414;2022-07-24T09:01:48;24.80;99.90
35804;DHT22;21924;51.934;7.414;2022-07-24T09:04:42;24.90;99.90
35804;DHT22;21924;51.934;7.414;2022-07-24T09:07:29;24.90;99.90
35804;DHT22;21924;51.934;7.414;2022-07-24T09:10:16;25.00;99.90
35804;DHT22;21924;51.934;7.414;2022-07-24T09:13:15;25.00;99.90
35804;DHT22;21924;51.934;7.414;2022-07-24T09:15:59;25.20;99.90
35804;DHT22;21924;51.934;7.414;2022-07-24T09:18:44;25.20;99.90
35804;DHT22;21924;51.934;7.414;2022-07-24T09:21:32;25.40;99.90
35804;DHT22;21924;51.934;7.414;2022-07-24T09:24:19;25.40;99.90
35804;DHT22;21924;51.934;7.414;2022-07-24T09:27:13;25.50;99.90
35804;DHT22;21924;51.934;7.414;2022-07-24T09:29:58;25.60;99.90
35804;DHT22;21924;51.934;7.414;2022-07-24T09:32:54;25.70;99.90
35804;DHT22;21924;51.934;7.414;2022-07-24T09:35:49;25.80;99.90
35804;DHT22;21924;51.934;7.414;2022-07-24T09:38:33;25.90;99.90
35804;DHT22;21924;51.934;7.414;2022-07-24T09:41:23;26.10;99.90
35804;DHT22;21924;51.934;7.414;2022-07-24T09:44:12;26.10;99.90
35804;DHT22;21924;51.934;7.414;2022-07-24T09:47:08;26.20;99.90
35804;DHT22;21924;51.934;7.414;2022-07-24T09:49:55;26.30;99.90
35804;DHT22;21924;51.934;7.414;2022-07-24T09:52:55;26.50;99.90
35804;DHT22;21924;51.934;7.414;2022-07-24T09:55:41;26.60;99.90
35804;DHT22;21924;51.934;7.414;2022-07-24T09:58:25;26.70;99.90
35804;DHT22;21924;51.934;7.414;2022-07-24T10:01:10;26.60;99.90
35804;DHT22;21924;51.934;7.414;2022-07-24T10:03:55;26.70;99.90
35804;DHT22;21924;51.934;7.414;2022-07-24T10:06:40;26.90;99.90
35804;DHT22;21924;51.934;7.414;2022-07-24T10:09:29;26.90;99.90
35804;DHT22;21924;51.934;7.414;2022-07-24T10:12:16;27.10;99.90
35804;DHT22;21924;51.934;7.414;2022-07-24T10:15:01;27.10;99.90
35804;DHT22;21924;51.934;7.414;2022-07-24T10:20:40;27.30;99.90
35804;DHT22;21924;51.934;7.414;2022-07-24T10:23:25;27.40;99.90
35804;DHT22;21924;51.934;7.414;2022-07-24T10:26:16;27.50;99.90
35804;DHT22;21924;51.934;7.414;2022-07-24T10:31:56;27.70;99.90
35804;DHT22;21924;51.934;7.414;2022-07-24T10:40:46;28.60;99.90
35804;DHT22;21924;51.934;7.414;2022-07-24T10:43:32;28.60;99.90
35804;DHT22;21924;51.934;7.414;2022-07-24T10:46:16;28.80;99.90
35804;DHT22;21924;51.934;7.414;2022-07-24T10:49:03;29.00;99.90
35804;DHT22;21924;51.934;7.414;2022-07-24T10:51:59;29.20;99.90
35804;DHT22;21924;51.934;7.414;2022-07-24T10:54:44;29.30;99.90
35804;DHT22;21924;51.934;7.414;2022-07-24T10:57:57;29.40;99.90
35804;DHT22;21924;51.934;7.414;2022-07-24T11:00:46;29.80;99.90
35804;DHT22;21924;51.934;7.414;2022-07-24T11:03:31;30.00;99.90
35804;DHT22;21924;51.934;7.414;2022-07-24T11:06:16;30.20;99.90
35804;DHT22;21924;51.934;7.414;2022-07-24T11:09:02;30.30;99.90
35804;DHT22;21924;51.934;7.414;2022-07-24T11:20:22;30.00;99.90
35804;DHT22;21924;51.934;7.414;2022-07-24T11:23:19;30.30;99.90
35804;DHT22;21924;51.934;7.414;2022-07-24T11:29:30;30.40;99.90
35804;DHT22;21924;51.934;7.414;2022-07-24T11:32:16;30.00;99.90
35804;DHT22;21924;51.934;7.414;2022-07-24T11:35:04;29.90;99.90
35804;DHT22;21924;51.934;7.414;2022-07-24T11:37:51;30.00;99.90
35804;DHT22;21924;51.934;7.414;2022-07-24T11:40:36;30.10;99.90
35804;DHT22;21924;51.934;7.414;2022-07-24T11:43:20;29.90;99.90
35804;DHT22;21924;51.934;7.414;2022-07-24T11:46:04;29.80;99.90
35804;DHT22;21924;51.934;7.414;2022-07-24T11:49:02;29.80;99.80
35804;DHT22;21924;51.934;7.414;2022-07-24T11:51:49;30.20;99.90
35804;DHT22;21924;51.934;7.414;2022-07-24T11:54:33;30.40;99.60
35804;DHT22;21924;51.934;7.414;2022-07-24T11:57:23;30.60;99.90
35804;DHT22;21924;51.934;7.414;2022-07-24T12:00:13;30.80;99.40
35804;DHT22;21924;51.934;7.414;2022-07-24T12:02:59;30.90;99.40
35804;DHT22;21924;51.934;7.414;2022-07-24T12:05:45;31.10;98.80
35804;DHT22;21924;51.934;7.414;2022-07-24T12:08:29;31.20;98.40
35804;DHT22;21924;51.934;7.414;2022-07-24T12:11:21;31.00;97.60
35804;DHT22;21924;51.934;7.414;2022-07-24T12:14:17;31.00;97.90
35804;DHT22;21924;51.934;7.414;2022-07-24T12:17:02;31.20;98.50
35804;DHT22;21924;51.934;7.414;2022-07-24T12:19:54;31.40;98.50
35804;DHT22;21924;51.934;7.414;2022-07-24T12:22:39;31.30;98.10
35804;DHT22;21924;51.934;7.414;2022-07-24T12:25:24;31.40;97.60
35804;DHT22;21924;51.934;7.414;2022-07-24T12:30:55;30.90;97.40
35804;DHT22;21924;51.934;7.414;2022-07-24T12:33:39;31.00;97.90
35804;DHT22;21924;51.934;7.414;2022-07-24T12:36:26;31.20;98.10
35804;DHT22;21924;51.934;7.414;2022-07-24T12:39:11;31.70;97.90
35804;DHT22;21924;51.934;7.414;2022-07-24T12:42:03;31.80;97.60
35804;DHT22;21924;51.934;7.414;2022-07-24T12:44:47;31.70;97.60
35804;DHT22;21924;51.934;7.414;2022-07-24T12:47:32;31.50;97.80
35804;DHT22;21924;51.934;7.414;2022-07-24T12:50:16;31.30;97.60
35804;DHT22;21924;51.934;7.414;2022-07-24T12:53:08;31.20;97.30
35804;DHT22;21924;51.934;7.414;2022-07-24T12:56:06;31.20;97.60
35804;DHT22;21924;51.934;7.414;2022-07-24T12:59:00;31.00;96.80
35804;DHT22;21924;51.934;7.414;2022-07-24T13:01:53;30.70;97.30
35804;DHT22;21924;51.934;7.414;2022-07-24T13:04:51;30.80;97.50
35804;DHT22;21924;51.934;7.414;2022-07-24T13:07:36;31.20;97.50
35804;DHT22;21924;51.934;7.414;2022-07-24T13:10:20;31.10;97.00
35804;DHT22;21924;51.934;7.414;2022-07-24T13:13:04;31.40;97.00
35804;DHT22;21924;51.934;7.414;2022-07-24T13:15:48;31.40;96.30
35804;DHT22;21924;51.934;7.414;2022-07-24T13:18:33;31.50;96.30
35804;DHT22;21924;51.934;7.414;2022-07-24T13:21:17;31.90;95.80
35804;DHT22;21924;51.934;7.414;2022-07-24T13:24:04;32.00;95.90
35804;DHT22;21924;51.934;7.414;2022-07-24T13:26:49;32.30;95.70
35804;DHT22;21924;51.934;7.414;2022-07-24T13:29:33;32.80;94.90
35804;DHT22;21924;51.934;7.414;2022-07-24T13:32:21;33.10;94.60
35804;DHT22;21924;51.934;7.414;2022-07-24T13:35:05;33.30;95.30
35804;DHT22;21924;51.934;7.414;2022-07-24T13:37:50;33.70;94.80
35804;DHT22;21924;51.934;7.414;2022-07-24T13:40:34;33.60;94.70
35804;DHT22;21924;51.934;7.414;2022-07-24T13:43:18;34.00;94.10
35804;DHT22;21924;51.934;7.414;2022-07-24T13:46:03;34.10;94.20
35804;DHT22;21924;51.934;7.414;2022-07-24T13:48:48;33.90;93.20
35804;DHT22;21924;51.934;7.414;2022-07-24T13:51:36;34.00;93.90
35804;DHT22;21924;51.934;7.414;2022-07-24T13:54:20;34.00;93.10
35804;DHT22;21924;51.934;7.414;2022-07-24T13:57:04;33.90;92.70
35804;DHT22;21924;51.934;7.414;2022-07-24T13:59:48;33.90;93.40
35804;DHT22;21924;51.934;7.414;2022-07-24T14:02:32;34.80;93.10
35804;DHT22;21924;51.934;7.414;2022-07-24T14:05:17;35.50;92.20
35804;DHT22;21924;51.934;7.414;2022-07-24T14:08:01;35.20;92.70
35804;DHT22;21924;51.934;7.414;2022-07-24T14:10:45;35.60;92.50
35804;DHT22;21924;51.934;7.414;2022-07-24T14:13:30;35.10;92.00
35804;DHT22;21924;51.934;7.414;2022-07-24T14:16:14;35.50;91.90
35804;DHT22;21924;51.934;7.414;2022-07-24T14:18:59;35.90;90.70
35804;DHT22;21924;51.934;7.414;2022-07-24T14:21:43;35.70;91.10
35804;DHT22;21924;51.934;7.414;2022-07-24T14:24:29;34.60;91.00
35804;DHT22;21924;51.934;7.414;2022-07-24T14:27:14;35.00;91.30
35804;DHT22;21924;51.934;7.414;2022-07-24T14:29:58;34.70;91.10
35804;DHT22;21924;51.934;7.414;2022-07-24T14:32:43;35.10;90.90
35804;DHT22;21924;51.934;7.414;2022-07-24T14:35:27;35.00;90.90
35804;DHT22;21924;51.934;7.414;2022-07-24T14:38:11;35.60;90.90
35804;DHT22;21924;51.934;7.414;2022-07-24T14:40:55;36.00;90.50
35804;DHT22;21924;51.934;7.414;2022-07-24T14:43:39;36.20;89.20
35804;DHT22;21924;51.934;7.414;2022-07-24T14:46:23;36.30;90.00
35804;DHT22;21924;51.934;7.414;2022-07-24T14:49:07;36.20;90.00
35804;DHT22;21924;51.934;7.414;2022-07-24T14:51:51;36.20;89.50
35804;DHT22;21924;51.934;7.414;2022-07-24T14:54:36;35.00;89.20
35804;DHT22;21924;51.934;7.414;2022-07-24T14:57:20;35.10;89.60
35804;DHT22;21924;51.934;7.414;2022-07-24T15:00:04;35.40;90.20
35804;DHT22;21924;51.934;7.414;2022-07-24T15:02:49;35.40;89.20
35804;DHT22;21924;51.934;7.414;2022-07-24T15:05:34;35.50;88.40
35804;DHT22;21924;51.934;7.414;2022-07-24T15:08:18;35.50;87.90
35804;DHT22;21924;51.934;7.414;2022-07-24T15:11:02;35.20;89.20
35804;DHT22;21924;51.934;7.414;2022-07-24T15:13:46;35.30;90.10
35804;DHT22;21924;51.934;7.414;2022-07-24T15:16:31;35.20;89.20
35804;DHT22;21924;51.934;7.414;2022-07-24T15:19:14;34.80;89.30
35804;DHT22;21924;51.934;7.414;2022-07-24T15:21:59;34.40;89.90
35804;DHT22;21924;51.934;7.414;2022-07-24T15:24:43;34.00;89.80
35804;DHT22;21924;51.934;7.414;2022-07-24T15:27:27;33.60;90.40
35804;DHT22;21924;51.934;7.414;2022-07-24T15:30:11;33.20;91.10
35804;DHT22;21924;51.934;7.414;2022-07-24T15:32:59;33.00;91.10
35804;DHT22;21924;51.934;7.414;2022-07-24T15:35:46;32.70;91.30
35804;DHT22;21924;51.934;7.414;2022-07-24T15:38:30;32.50;91.70
35804;DHT22;21924;51.934;7.414;2022-07-24T15:41:14;32.50;91.00
35804;DHT22;21924;51.934;7.414;2022-07-24T15:43:58;32.10;91.20
35804;DHT22;21924;51.934;7.414;2022-07-24T15:46:42;31.70;91.40
35804;DHT22;21924;51.934;7.414;2022-07-24T15:49:26;31.30;91.30
35804;DHT22;21924;51.934;7.414;2022-07-24T15:52:10;31.00;92.40
35804;DHT22;21924;51.934;7.414;2022-07-24T15:54:55;30.90;93.20
35804;DHT22;21924;51.934;7.414;2022-07-24T15:57:39;30.90;92.30
35804;DHT22;21924;51.934;7.414;2022-07-24T16:00:23;30.70;92.90
35804;DHT22;21924;51.934;7.414;2022-07-24T16:03:07;30.60;92.80
35804;DHT22;21924;51.934;7.414;2022-07-24T16:05:52;30.60;92.60
35804;DHT22;21924;51.934;7.414;2022-07-24T16:08:36;30.40;93.30
35804;DHT22;21924;51.934;7.414;2022-07-24T16:11:20;30.30;92.60
35804;DHT22;21924;51.934;7.414;2022-07-24T16:14:04;30.20;92.20
35804;DHT22;21924;51.934;7.414;2022-07-24T16:16:48;30.10;93.10
35804;DHT22;21924;51.934;7.414;2022-07-24T16:19:33;30.10;92.70
35804;DHT22;21924;51.934;7.414;2022-07-24T16:22:17;30.10;93.00
35804;DHT22;21924;51.934;7.414;2022-07-24T16:25:02;30.00;92.90
35804;DHT22;21924;51.934;7.414;2022-07-24T16:27:46;29.90;93.00
35804;DHT22;21924;51.934;7.414;2022-07-24T16:30:30;29.90;92.30
35804;DHT22;21924;51.934;7.414;2022-07-24T16:33:14;29.80;93.50
35804;DHT22;21924;51.934;7.414;2022-07-24T16:35:58;29.80;92.90
35804;DHT22;21924;51.934;7.414;2022-07-24T16:38:42;29.80;93.20
35804;DHT22;21924;51.934;7.414;2022-07-24T16:41:26;29.80;93.10
35804;DHT22;21924;51.934;7.414;2022-07-24T16:44:10;29.80;92.40
35804;DHT22;21924;51.934;7.414;2022-07-24T16:46:55;29.80;93.10
35804;DHT22;21924;51.934;7.414;2022-07-24T16:49:39;29.80;93.40
35804;DHT22;21924;51.934;7.414;2022-07-24T16:52:23;29.70;93.10
35804;DHT22;21924;51.934;7.414;2022-07-24T16:55:07;29.70;93.00
35804;DHT22;21924;51.934;7.414;2022-07-24T16:57:51;29.70;92.50
35804;DHT22;21924;51.934;7.414;2022-07-24T17:00:35;29.60;92.60
35804;DHT22;21924;51.934;7.414;2022-07-24T17:03:19;29.70;92.20
35804;DHT22;21924;51.934;7.414;2022-07-24T17:06:04;29.70;92.70
35804;DHT22;21924;51.934;7.414;2022-07-24T17:08:48;29.90;93.20
35804;DHT22;21924;51.934;7.414;2022-07-24T17:11:32;30.20;92.30
35804;DHT22;21924;51.934;7.414;2022-07-24T17:14:16;30.50;91.50
35804;DHT22;21924;51.934;7.414;2022-07-24T17:17:00;30.50;91.60
35804;DHT22;21924;51.934;7.414;2022-07-24T17:19:45;30.60;91.30
35804;DHT22;21924;51.934;7.414;2022-07-24T17:22:29;30.80;91.60
35804;DHT22;21924;51.934;7.414;2022-07-24T17:25:13;31.40;91.10
35804;DHT22;21924;51.934;7.414;2022-07-24T17:27:57;31.70;90.50
35804;DHT22;21924;51.934;7.414;2022-07-24T17:30:41;31.80;90.00
35804;DHT22;21924;51.934;7.414;2022-07-24T17:33:27;31.60;90.70
35804;DHT22;21924;51.934;7.414;2022-07-24T17:36:11;31.10;91.20
35804;DHT22;21924;51.934;7.414;2022-07-24T17:38:55;30.90;92.00
35804;DHT22;21924;51.934;7.414;2022-07-24T17:41:39;30.50;90.90
35804;DHT22;21924;51.934;7.414;2022-07-24T17:44:23;30.00;91.50
35804;DHT22;21924;51.934;7.414;2022-07-24T17:47:07;29.60;91.50
35804;DHT22;21924;51.934;7.414;2022-07-24T17:49:51;29.30;91.90